Terminal Aerodrome Forecast
Issued by NWS

Home | Current Version | Previous Version | Text Only | Print | Product List | Glossary On
Versions: 1 2 3 4 5 6 7 8 9 10 11 12 13
000
FTUS41 KPBZ 030524
TAFMGW
TAF
KMGW 030524Z 0306/0406 21006KT P6SM SKC
     FM031600 22010KT P6SM BKN050
     FM032000 23012G20KT P6SM -SHRA VCTS BKN040CB
     FM040400 26008KT P6SM BKN040=

USA.gov is the U.S. government's official web portal to all federal, state and local government web resources and services.